createdAt,value
2017-01-09T00:00:02.853Z,0
2017-01-09T00:01:00.725Z,0
2017-01-09T00:02:01.865Z,0
2017-01-09T00:03:02.284Z,0
2017-01-09T00:04:01.622Z,0
2017-01-09T00:05:02.058Z,0
2017-01-09T00:06:02.270Z,0
2017-01-09T00:07:02.030Z,0
2017-01-09T00:08:01.829Z,0
2017-01-09T00:09:00.806Z,0
2017-01-09T00:10:02.276Z,0
2017-01-09T00:11:00.744Z,0
2017-01-09T00:12:01.271Z,0
2017-01-09T00:13:00.689Z,0
2017-01-09T00:14:00.775Z,0
2017-01-09T00:15:00.176Z,0
2017-01-09T00:16:01.659Z,0
2017-01-09T00:17:00.915Z,0
2017-01-09T00:18:01.110Z,0
2017-01-09T00:18:59.581Z,0
2017-01-09T00:20:01.435Z,0
2017-01-09T00:21:01.117Z,0
2017-01-09T00:22:00.477Z,0
2017-01-09T00:23:00.712Z,0
2017-01-09T00:23:59.934Z,0
2017-01-09T00:25:01.374Z,0
2017-01-09T00:26:00.461Z,0
2017-01-09T00:26:59.880Z,0
2017-01-09T00:27:59.995Z,0
2017-01-09T00:29:00.560Z,0
2017-01-09T00:30:00.911Z,0
2017-01-09T00:31:01.344Z,0
2017-01-09T00:31:59.845Z,0
2017-01-09T00:33:00.476Z,0
2017-01-09T00:34:00.836Z,0
2017-01-09T00:35:00.858Z,0
2017-01-09T00:35:59.664Z,0
2017-01-09T00:37:00.514Z,0
2017-01-09T00:37:59.334Z,0
2017-01-09T00:38:59.623Z,0
2017-01-09T00:40:01.020Z,0
2017-01-09T00:41:01.282Z,0
2017-01-09T00:42:00.436Z,0
2017-01-09T00:42:59.427Z,0
2017-01-09T00:44:00.386Z,0
2017-01-09T00:44:59.715Z,0
2017-01-09T00:46:01.159Z,0
2017-01-09T00:47:00.339Z,0
2017-01-09T00:48:00.629Z,0
2017-01-09T00:49:00.808Z,0
2017-01-09T00:50:00.796Z,0
2017-01-09T00:51:00.296Z,0
2017-01-09T00:52:01.006Z,0
2017-01-09T00:53:00.039Z,0
2017-01-09T00:53:59.142Z,0
2017-01-09T00:54:59.878Z,0
2017-01-09T00:56:00.175Z,0
2017-01-09T00:56:59.235Z,0
2017-01-09T00:57:59.772Z,0
2017-01-09T00:58:59.191Z,0
2017-01-09T00:59:59.720Z,0
2017-01-09T01:00:59.256Z,0
2017-01-09T01:02:00.120Z,0
2017-01-09T01:03:00.550Z,0
2017-01-09T01:04:00.548Z,0
2017-01-09T01:04:59.155Z,0
2017-01-09T01:05:59.257Z,0
2017-01-09T01:06:59.238Z,0
2017-01-09T01:07:59.298Z,0
2017-01-09T01:08:59.267Z,0
2017-01-09T01:09:59.904Z,0
2017-01-09T01:10:59.475Z,0
2017-01-09T01:11:59.544Z,0
2017-01-09T01:12:59.823Z,0
2017-01-09T01:13:58.817Z,0
2017-01-09T01:14:58.700Z,0
2017-01-09T01:15:59.733Z,0
2017-01-09T01:16:58.842Z,0
2017-01-09T01:17:58.684Z,0
2017-01-09T01:18:59.340Z,0
2017-01-09T01:19:58.660Z,0
2017-01-09T01:21:00.064Z,0
2017-01-09T01:21:59.769Z,0
2017-01-09T01:23:00.245Z,0
2017-01-09T01:23:59.118Z,0
2017-01-09T01:24:59.049Z,0
2017-01-09T01:26:00.347Z,0
2017-01-09T01:26:58.796Z,0
2017-01-09T01:27:57.942Z,0
2017-01-09T01:28:59.513Z,0
2017-01-09T01:29:59.709Z,0
2017-01-09T01:30:59.030Z,0
2017-01-09T01:31:59.524Z,0
2017-01-09T01:32:58.310Z,0
2017-01-09T01:33:58.806Z,0
2017-01-09T01:34:58.098Z,0
2017-01-09T01:35:58.812Z,0
2017-01-09T01:37:00.210Z,0
2017-01-09T01:37:58.360Z,0
2017-01-09T01:39:00.099Z,0
2017-01-09T01:39:59.024Z,0
2017-01-09T01:40:57.719Z,0
2017-01-09T01:41:58.779Z,0
2017-01-09T01:42:59.055Z,0
2017-01-09T01:43:59.346Z,0
2017-01-09T01:44:59.372Z,0
2017-01-09T01:45:59.220Z,0
2017-01-09T01:46:58.765Z,0
2017-01-09T01:47:58.142Z,0
2017-01-09T01:48:59.348Z,0
2017-01-09T01:49:58.834Z,0
2017-01-09T01:50:59.495Z,0
2017-01-09T01:51:59.071Z,0
2017-01-09T01:52:59.137Z,0
2017-01-09T01:53:58.770Z,0
2017-01-09T01:54:58.269Z,0
2017-01-09T01:55:58.280Z,0
2017-01-09T01:56:58.007Z,0
2017-01-09T01:57:58.198Z,0
2017-01-09T01:58:58.586Z,0
2017-01-09T01:59:58.050Z,0
2017-01-09T02:00:58.796Z,0
2017-01-09T02:01:57.499Z,0
2017-01-09T02:02:58.775Z,0
2017-01-09T02:03:58.472Z,0
2017-01-09T02:04:58.076Z,0
2017-01-09T02:05:57.484Z,0
2017-01-09T02:06:58.059Z,0
2017-01-09T02:07:58.031Z,0
2017-01-09T02:08:57.122Z,0
2017-01-09T02:09:58.652Z,0
2017-01-09T02:10:57.828Z,0
2017-01-09T02:11:58.597Z,0
2017-01-09T02:12:57.270Z,0
2017-01-09T02:13:58.450Z,0
2017-01-09T02:14:58.118Z,0
2017-01-09T02:15:59.162Z,0
2017-01-09T02:16:57.497Z,0
2017-01-09T02:17:57.307Z,0
2017-01-09T02:18:58.406Z,0
2017-01-09T02:19:58.158Z,0
2017-01-09T02:20:58.585Z,0
2017-01-09T02:21:58.111Z,0
2017-01-09T02:22:58.294Z,0
2017-01-09T02:23:57.954Z,0
2017-01-09T02:24:58.280Z,0
2017-01-09T02:25:57.493Z,0
2017-01-09T02:26:58.221Z,0
2017-01-09T02:27:58.177Z,0
2017-01-09T02:28:58.050Z,0
2017-01-09T02:29:57.495Z,0
2017-01-09T02:30:58.103Z,0
2017-01-09T02:31:57.599Z,0
2017-01-09T02:32:58.059Z,0
2017-01-09T02:33:57.098Z,0
2017-01-09T02:34:57.360Z,0
2017-01-09T02:35:58.154Z,0
2017-01-09T02:36:56.674Z,0
2017-01-09T02:37:56.519Z,0
2017-01-09T02:38:57.052Z,0
2017-01-09T02:39:57.105Z,0
2017-01-09T02:40:57.099Z,0
2017-01-09T02:41:56.184Z,0
2017-01-09T02:42:56.070Z,0
2017-01-09T02:43:57.283Z,0
2017-01-09T02:44:58.198Z,0
2017-01-09T02:45:57.749Z,0
2017-01-09T02:46:56.691Z,0
2017-01-09T02:47:57.020Z,0
2017-01-09T02:48:56.440Z,0
2017-01-09T02:49:58.063Z,0
2017-01-09T02:50:58.008Z,0
2017-01-09T02:51:57.557Z,0
2017-01-09T02:52:58.175Z,0
2017-01-09T02:53:56.098Z,0
2017-01-09T02:54:57.004Z,0
2017-01-09T02:55:57.843Z,0
2017-01-09T02:56:56.525Z,0
2017-01-09T02:57:56.676Z,0
2017-01-09T02:58:57.373Z,0
2017-01-09T02:59:57.329Z,0
2017-01-09T03:00:57.362Z,0
2017-01-09T03:01:56.609Z,0
2017-01-09T03:02:56.950Z,0
2017-01-09T03:03:56.534Z,0
2017-01-09T03:04:57.282Z,0
2017-01-09T03:05:56.126Z,0
2017-01-09T03:06:55.721Z,0
2017-01-09T03:07:56.717Z,0
2017-01-09T03:08:57.047Z,0
2017-01-09T03:09:56.834Z,0
2017-01-09T03:10:55.597Z,0
2017-01-09T03:11:55.615Z,0
2017-01-09T03:12:57.370Z,0
2017-01-09T03:13:56.973Z,0
2017-01-09T03:14:55.474Z,0
2017-01-09T03:15:56.922Z,0
2017-01-09T03:16:55.910Z,0
2017-01-09T03:17:55.891Z,0
2017-01-09T03:18:56.200Z,0
2017-01-09T03:19:54.812Z,0
2017-01-09T03:20:56.123Z,0
2017-01-09T03:21:56.099Z,0
2017-01-09T03:22:55.658Z,0
2017-01-09T03:23:56.387Z,0
2017-01-09T03:24:56.694Z,0
2017-01-09T03:25:56.047Z,0
2017-01-09T03:26:55.375Z,0
2017-01-09T03:27:56.056Z,0
2017-01-09T03:28:55.043Z,0
2017-01-09T03:29:57.105Z,0
2017-01-09T03:30:55.145Z,0
2017-01-09T03:31:55.753Z,0
2017-01-09T03:32:56.323Z,0
2017-01-09T03:33:56.446Z,0
2017-01-09T03:34:57.098Z,0
2017-01-09T03:35:57.051Z,0
2017-01-09T03:36:55.040Z,0
2017-01-09T03:37:56.041Z,0
2017-01-09T03:38:55.570Z,0
2017-01-09T03:39:55.679Z,0
2017-01-09T03:40:55.310Z,0
2017-01-09T03:41:55.575Z,0
2017-01-09T03:42:55.331Z,0
2017-01-09T03:43:55.474Z,0
2017-01-09T03:44:55.593Z,0
2017-01-09T03:45:55.716Z,0
2017-01-09T03:46:55.378Z,0
2017-01-09T03:47:56.077Z,0
2017-01-09T03:48:54.521Z,0
2017-01-09T03:49:56.035Z,0
2017-01-09T03:50:55.882Z,0
2017-01-09T03:51:56.663Z,0
2017-01-09T03:52:53.882Z,0
2017-01-09T03:53:54.932Z,0
2017-01-09T03:54:55.161Z,0
2017-01-09T03:55:55.220Z,0
2017-01-09T03:56:55.690Z,0
2017-01-09T03:57:54.607Z,0
2017-01-09T03:58:55.179Z,0
2017-01-09T03:59:55.049Z,0
2017-01-09T04:00:56.068Z,0
2017-01-09T04:01:54.958Z,0
2017-01-09T04:02:54.817Z,0
2017-01-09T04:03:54.793Z,0
2017-01-09T04:04:55.345Z,0
2017-01-09T04:05:54.506Z,0
2017-01-09T04:06:54.753Z,0
2017-01-09T04:07:56.131Z,0
2017-01-09T04:08:54.264Z,0
2017-01-09T04:09:54.941Z,0
2017-01-09T04:10:55.441Z,0
2017-01-09T04:11:55.437Z,0
2017-01-09T04:12:55.030Z,0
2017-01-09T04:13:55.283Z,0
2017-01-09T04:14:55.240Z,0
2017-01-09T04:15:54.050Z,0
2017-01-09T04:16:54.500Z,0
2017-01-09T04:17:55.309Z,0
2017-01-09T04:18:55.141Z,0
2017-01-09T04:19:54.928Z,0
2017-01-09T04:20:54.485Z,0
2017-01-09T04:21:54.474Z,0
2017-01-09T04:22:55.472Z,0
2017-01-09T04:23:53.617Z,0
2017-01-09T04:24:54.631Z,0
2017-01-09T04:25:54.970Z,0
2017-01-09T04:26:55.715Z,0
2017-01-09T04:27:55.054Z,0
2017-01-09T04:28:54.374Z,0
2017-01-09T04:29:54.667Z,0
2017-01-09T04:30:55.469Z,0
2017-01-09T04:31:54.850Z,0
2017-01-09T04:32:54.212Z,0
2017-01-09T04:33:53.950Z,0
2017-01-09T04:34:54.830Z,0
2017-01-09T04:35:55.137Z,0
2017-01-09T04:36:55.454Z,0
2017-01-09T04:37:53.449Z,0
2017-01-09T04:38:54.598Z,0
2017-01-09T04:39:53.759Z,0
2017-01-09T04:40:54.447Z,0
2017-01-09T04:41:53.255Z,0
2017-01-09T04:42:53.535Z,0
2017-01-09T04:43:53.956Z,0
2017-01-09T04:44:54.231Z,0
2017-01-09T04:45:54.552Z,0
2017-01-09T04:46:53.912Z,0
2017-01-09T04:47:53.746Z,0
2017-01-09T04:48:54.504Z,0
2017-01-09T04:49:54.461Z,0
2017-01-09T04:50:53.291Z,0
2017-01-09T04:51:54.081Z,0
2017-01-09T04:52:54.051Z,0
2017-01-09T04:53:53.731Z,0
2017-01-09T04:54:52.955Z,0
2017-01-09T04:55:54.810Z,0
2017-01-09T04:56:53.530Z,0
2017-01-09T04:57:53.818Z,0
2017-01-09T04:58:53.152Z,0
2017-01-09T04:59:53.516Z,0
2017-01-09T05:00:52.856Z,0
2017-01-09T05:01:54.736Z,0
2017-01-09T05:02:54.134Z,0
2017-01-09T05:03:53.346Z,0
2017-01-09T05:04:54.071Z,0
2017-01-09T05:05:52.960Z,0
2017-01-09T05:06:53.489Z,0
2017-01-09T05:07:54.623Z,0
2017-01-09T05:08:53.648Z,0
2017-01-09T05:09:53.999Z,0
2017-01-09T05:10:52.921Z,0
2017-01-09T05:11:53.001Z,0
2017-01-09T05:12:52.116Z,0
2017-01-09T05:13:52.508Z,0
2017-01-09T05:14:53.474Z,0
2017-01-09T05:15:53.346Z,0
2017-01-09T05:16:52.127Z,0
2017-01-09T05:17:52.867Z,0
2017-01-09T05:18:52.886Z,0
2017-01-09T05:19:52.266Z,0
2017-01-09T05:20:53.212Z,0
2017-01-09T05:21:53.359Z,0
2017-01-09T05:22:53.351Z,0
2017-01-09T05:23:53.275Z,0
2017-01-09T05:24:53.102Z,0
2017-01-09T05:25:53.437Z,0
2017-01-09T05:26:53.374Z,0
2017-01-09T05:27:52.689Z,0
2017-01-09T05:28:52.787Z,0
2017-01-09T05:29:52.731Z,0
2017-01-09T05:30:53.239Z,0
2017-01-09T05:31:52.281Z,0
2017-01-09T05:32:52.340Z,0
2017-01-09T05:33:53.239Z,0
2017-01-09T05:34:52.150Z,0
2017-01-09T05:35:52.276Z,0
2017-01-09T05:36:52.558Z,0
2017-01-09T05:37:52.841Z,0
2017-01-09T05:38:52.275Z,0
2017-01-09T05:39:53.136Z,0
2017-01-09T05:40:52.865Z,0
2017-01-09T05:41:52.417Z,0
2017-01-09T05:42:52.020Z,0
2017-01-09T05:43:52.384Z,0
2017-01-09T05:44:53.540Z,0
2017-01-09T05:45:52.283Z,0
2017-01-09T05:46:52.610Z,0
2017-01-09T05:47:52.831Z,0
2017-01-09T05:48:51.712Z,0
2017-01-09T05:49:52.550Z,0
2017-01-09T05:50:52.685Z,0
2017-01-09T05:51:53.166Z,0
2017-01-09T05:52:52.545Z,0
2017-01-09T05:53:52.779Z,0
2017-01-09T05:54:51.630Z,0
2017-01-09T05:55:52.568Z,0
2017-01-09T05:56:52.286Z,0
2017-01-09T05:57:51.452Z,0
2017-01-09T05:58:51.908Z,0
2017-01-09T05:59:52.630Z,0
2017-01-09T06:00:52.993Z,0
2017-01-09T06:01:51.568Z,0
2017-01-09T06:02:52.373Z,0
2017-01-09T06:03:52.865Z,0
2017-01-09T06:04:51.410Z,0
2017-01-09T06:05:52.810Z,0
2017-01-09T06:06:51.811Z,0
2017-01-09T06:07:51.589Z,0
2017-01-09T06:08:52.020Z,0
2017-01-09T06:09:52.859Z,0
2017-01-09T06:10:52.144Z,0
2017-01-09T06:11:51.178Z,0
2017-01-09T06:12:52.168Z,0
2017-01-09T06:13:51.618Z,0
2017-01-09T06:14:51.797Z,0
2017-01-09T06:15:51.899Z,0
2017-01-09T06:16:52.488Z,0
2017-01-09T06:17:50.099Z,0
2017-01-09T06:18:52.134Z,0
2017-01-09T06:19:51.047Z,0
2017-01-09T06:20:50.969Z,0
2017-01-09T06:21:52.672Z,0
2017-01-09T06:22:52.362Z,0
2017-01-09T06:23:50.250Z,0
2017-01-09T06:24:51.792Z,0
2017-01-09T06:25:50.328Z,0
2017-01-09T06:26:51.559Z,0
2017-01-09T06:27:52.075Z,0
2017-01-09T06:28:51.509Z,0
2017-01-09T06:29:51.488Z,0
2017-01-09T06:30:52.115Z,0
2017-01-09T06:31:51.434Z,0
2017-01-09T06:32:52.406Z,0
2017-01-09T06:33:50.326Z,0
2017-01-09T06:34:52.025Z,0
2017-01-09T06:35:51.345Z,0
2017-01-09T06:36:51.696Z,0
2017-01-09T06:37:52.153Z,0
2017-01-09T06:38:50.832Z,0
2017-01-09T06:39:50.339Z,0
2017-01-09T06:40:49.393Z,0
2017-01-09T06:41:52.067Z,0
2017-01-09T06:42:50.681Z,0
2017-01-09T06:43:50.091Z,0
2017-01-09T06:44:51.069Z,0
2017-01-09T06:45:50.638Z,0
2017-01-09T06:46:51.499Z,0
2017-01-09T06:47:52.088Z,0
2017-01-09T06:48:50.965Z,0
2017-01-09T06:49:51.307Z,0
2017-01-09T06:50:49.843Z,0
2017-01-09T06:51:50.591Z,0
2017-01-09T06:52:49.960Z,0
2017-01-09T06:53:50.208Z,0
2017-01-09T06:54:49.725Z,0
2017-01-09T06:55:50.065Z,0
2017-01-09T06:56:51.134Z,0
2017-01-09T06:57:51.073Z,0
2017-01-09T06:58:50.609Z,0
2017-01-09T06:59:50.849Z,0
2017-01-09T07:00:50.332Z,0
2017-01-09T07:01:50.830Z,0
2017-01-09T07:02:50.801Z,0
2017-01-09T07:03:51.079Z,0
2017-01-09T07:04:49.838Z,0
2017-01-09T07:05:50.897Z,0
2017-01-09T07:06:49.857Z,0
2017-01-09T07:07:49.532Z,0
2017-01-09T07:08:50.212Z,0
2017-01-09T07:09:51.065Z,0
2017-01-09T07:10:50.255Z,0
2017-01-09T07:11:50.023Z,0
2017-01-09T07:12:49.375Z,0
2017-01-09T07:13:49.113Z,0
2017-01-09T07:14:49.812Z,0
2017-01-09T07:15:49.591Z,0
2017-01-09T07:16:49.371Z,0
2017-01-09T07:17:50.761Z,0
2017-01-09T07:18:49.126Z,0
2017-01-09T07:19:49.719Z,0
2017-01-09T07:20:49.149Z,0
2017-01-09T07:21:49.696Z,0
2017-01-09T07:22:49.757Z,0
2017-01-09T07:23:48.263Z,0
2017-01-09T07:24:48.903Z,0
2017-01-09T07:25:50.298Z,0
2017-01-09T07:26:49.244Z,0
2017-01-09T07:27:50.333Z,0
2017-01-09T07:28:49.128Z,0
2017-01-09T07:29:49.160Z,0
2017-01-09T07:30:49.783Z,0
2017-01-09T07:31:48.773Z,0
2017-01-09T07:32:49.802Z,0
2017-01-09T07:33:50.243Z,0
2017-01-09T07:34:48.811Z,0
2017-01-09T07:35:48.681Z,0
2017-01-09T07:36:49.800Z,0
2017-01-09T07:37:49.117Z,0
2017-01-09T07:38:49.591Z,0
2017-01-09T07:39:48.235Z,0
2017-01-09T07:40:49.858Z,0
2017-01-09T07:41:47.791Z,0
2017-01-09T07:42:49.030Z,0
2017-01-09T07:43:49.446Z,0
2017-01-09T07:44:49.186Z,0
2017-01-09T07:45:49.765Z,0
2017-01-09T07:46:50.403Z,0
2017-01-09T07:47:48.984Z,0
2017-01-09T07:48:50.059Z,0
2017-01-09T07:49:49.341Z,0
2017-01-09T07:50:48.950Z,0
2017-01-09T07:51:49.051Z,0
2017-01-09T07:52:49.301Z,0
2017-01-09T07:53:48.672Z,0
2017-01-09T07:54:48.899Z,0
2017-01-09T07:55:49.059Z,0
2017-01-09T07:56:48.709Z,0
2017-01-09T07:57:49.147Z,0
2017-01-09T07:58:49.648Z,0
2017-01-09T07:59:48.149Z,0
2017-01-09T08:00:49.745Z,0
2017-01-09T08:01:49.073Z,5
2017-01-09T08:02:47.995Z,5
2017-01-09T08:03:48.081Z,5
2017-01-09T08:04:49.304Z,5
2017-01-09T08:05:49.353Z,5
2017-01-09T08:06:49.244Z,5
2017-01-09T08:07:49.750Z,5
2017-01-09T08:08:48.208Z,5
2017-01-09T08:09:47.755Z,5
2017-01-09T08:10:49.091Z,5
2017-01-09T08:11:48.498Z,5
2017-01-09T08:12:48.748Z,5
2017-01-09T08:13:49.259Z,5
2017-01-09T08:14:48.565Z,5
2017-01-09T08:15:48.355Z,5
2017-01-09T08:16:48.341Z,5
2017-01-09T08:17:48.956Z,5
2017-01-09T08:18:49.126Z,10
2017-01-09T08:19:49.545Z,10
2017-01-09T08:20:49.206Z,10
2017-01-09T08:21:48.974Z,10
2017-01-09T08:22:47.881Z,10
2017-01-09T08:23:48.623Z,10
2017-01-09T08:24:49.532Z,10
2017-01-09T08:25:48.191Z,10
2017-01-09T08:26:48.735Z,10
2017-01-09T08:27:48.121Z,10
2017-01-09T08:28:48.030Z,10
2017-01-09T08:29:48.289Z,15
2017-01-09T08:30:48.194Z,15
2017-01-09T08:31:46.875Z,15
2017-01-09T08:32:48.185Z,15
2017-01-09T08:33:47.456Z,15
2017-01-09T08:34:47.936Z,15
2017-01-09T08:35:49.156Z,15
2017-01-09T08:36:48.498Z,15
2017-01-09T08:37:48.093Z,20
2017-01-09T08:38:47.850Z,20
2017-01-09T08:39:47.111Z,20
2017-01-09T08:40:47.363Z,20
2017-01-09T08:41:47.670Z,20
2017-01-09T08:42:47.887Z,20
2017-01-09T08:43:47.633Z,20
2017-01-09T08:44:48.271Z,20
2017-01-09T08:45:47.780Z,20
2017-01-09T08:46:48.250Z,20
2017-01-09T08:47:47.890Z,20
2017-01-09T08:48:47.480Z,20
2017-01-09T08:49:48.482Z,20
2017-01-09T08:50:46.757Z,20
2017-01-09T08:51:47.324Z,25
2017-01-09T08:52:47.637Z,25
2017-01-09T08:53:47.408Z,25
2017-01-09T08:54:47.376Z,25
2017-01-09T08:55:48.007Z,25
2017-01-09T08:56:47.847Z,25
2017-01-09T08:57:47.922Z,25
2017-01-09T08:58:47.772Z,25
2017-01-09T08:59:47.684Z,25
2017-01-09T09:00:47.885Z,25
2017-01-09T09:01:47.888Z,20
2017-01-09T09:02:48.332Z,20
2017-01-09T09:03:47.767Z,25
2017-01-09T09:04:48.321Z,25
2017-01-09T09:05:48.114Z,25
2017-01-09T09:06:48.058Z,30
2017-01-09T09:07:46.106Z,35
2017-01-09T09:08:47.695Z,35
2017-01-09T09:09:47.338Z,35
2017-01-09T09:10:46.936Z,35
2017-01-09T09:11:47.367Z,40
2017-01-09T09:12:46.795Z,40
2017-01-09T09:13:47.421Z,45
2017-01-09T09:14:48.016Z,40
2017-01-09T09:15:46.860Z,40
2017-01-09T09:16:47.102Z,45
2017-01-09T09:17:47.064Z,45
2017-01-09T09:18:46.452Z,45
2017-01-09T09:19:47.106Z,50
2017-01-09T09:20:48.001Z,55
2017-01-09T09:21:48.273Z,60
2017-01-09T09:22:46.232Z,60
2017-01-09T09:23:45.478Z,60
2017-01-09T09:24:46.840Z,55
2017-01-09T09:25:46.594Z,50
2017-01-09T09:26:46.124Z,45
2017-01-09T09:27:47.207Z,50
2017-01-09T09:28:46.743Z,50
2017-01-09T09:29:46.015Z,55
2017-01-09T09:30:47.275Z,65
2017-01-09T09:31:46.975Z,75
2017-01-09T09:32:46.125Z,80
2017-01-09T09:33:47.343Z,90
2017-01-09T09:34:46.514Z,100
2017-01-09T09:35:45.853Z,105
2017-01-09T09:36:46.936Z,110
2017-01-09T09:37:46.381Z,110
2017-01-09T09:38:45.589Z,105
2017-01-09T09:39:46.224Z,100
2017-01-09T09:40:45.840Z,85
2017-01-09T09:41:47.072Z,80
2017-01-09T09:42:46.340Z,80
2017-01-09T09:43:46.359Z,80
2017-01-09T09:44:46.425Z,80
2017-01-09T09:45:45.572Z,80
2017-01-09T09:46:46.075Z,80
2017-01-09T09:47:46.186Z,90
2017-01-09T09:48:46.296Z,85
2017-01-09T09:49:45.606Z,85
2017-01-09T09:50:46.495Z,80
2017-01-09T09:51:47.137Z,80
2017-01-09T09:52:46.614Z,75
2017-01-09T09:53:45.598Z,75
2017-01-09T09:54:45.911Z,75
2017-01-09T09:55:46.950Z,80
2017-01-09T09:56:46.329Z,80
2017-01-09T09:57:45.788Z,80
2017-01-09T09:58:46.557Z,80
2017-01-09T09:59:45.129Z,75
2017-01-09T10:00:44.400Z,75
2017-01-09T10:01:45.529Z,70
2017-01-09T10:02:45.894Z,70
2017-01-09T10:03:44.869Z,75
2017-01-09T10:04:45.605Z,75
2017-01-09T10:05:46.637Z,75
2017-01-09T10:06:45.512Z,75
2017-01-09T10:07:45.291Z,75
2017-01-09T10:08:45.829Z,75
2017-01-09T10:09:45.986Z,75
2017-01-09T10:10:45.105Z,70
2017-01-09T10:11:44.933Z,70
2017-01-09T10:12:45.644Z,70
2017-01-09T10:13:46.530Z,70
2017-01-09T10:14:45.517Z,75
2017-01-09T10:15:44.602Z,80
2017-01-09T10:16:45.491Z,75
2017-01-09T10:17:44.932Z,75
2017-01-09T10:18:45.191Z,80
2017-01-09T10:19:45.595Z,80
2017-01-09T10:20:45.060Z,95
2017-01-09T10:21:45.669Z,95
2017-01-09T10:22:44.419Z,105
2017-01-09T10:23:45.513Z,110
2017-01-09T10:24:44.378Z,105
2017-01-09T10:25:44.770Z,110
2017-01-09T10:26:45.733Z,115
2017-01-09T10:27:44.635Z,110
2017-01-09T10:28:45.417Z,100
2017-01-09T10:29:45.707Z,90
2017-01-09T10:30:44.625Z,100
2017-01-09T10:31:45.484Z,115
2017-01-09T10:32:45.802Z,115
2017-01-09T10:33:44.486Z,115
2017-01-09T10:34:44.432Z,120
2017-01-09T10:35:44.812Z,130
2017-01-09T10:36:45.485Z,130
2017-01-09T10:37:45.258Z,130
2017-01-09T10:38:45.727Z,150
2017-01-09T10:39:45.711Z,150
2017-01-09T10:40:44.650Z,150
2017-01-09T10:41:44.879Z,175
2017-01-09T10:42:44.839Z,155
2017-01-09T10:43:45.798Z,145
2017-01-09T10:44:44.996Z,150
2017-01-09T10:45:44.506Z,170
2017-01-09T10:46:44.805Z,165
2017-01-09T10:47:44.566Z,140
2017-01-09T10:48:45.916Z,125
2017-01-09T10:49:45.635Z,175
2017-01-09T10:50:44.445Z,100
2017-01-09T10:51:44.153Z,85
2017-01-09T10:52:44.843Z,80
2017-01-09T10:53:43.729Z,85
2017-01-09T10:54:45.055Z,115
2017-01-09T10:55:44.046Z,130
2017-01-09T10:56:44.582Z,160
2017-01-09T10:57:45.121Z,185
2017-01-09T10:58:44.851Z,185
2017-01-09T10:59:45.261Z,175
2017-01-09T11:00:43.247Z,150
2017-01-09T11:01:43.792Z,130
2017-01-09T11:02:44.177Z,125
2017-01-09T11:03:44.408Z,120
2017-01-09T11:04:44.676Z,115
2017-01-09T11:05:44.787Z,115
2017-01-09T11:06:44.076Z,115
2017-01-09T11:07:44.675Z,115
2017-01-09T11:08:44.305Z,115
2017-01-09T11:09:44.516Z,100
2017-01-09T11:10:43.925Z,85
2017-01-09T11:11:44.705Z,80
2017-01-09T11:12:45.183Z,75
2017-01-09T11:13:44.241Z,80
2017-01-09T11:14:44.439Z,80
2017-01-09T11:15:44.336Z,75
2017-01-09T11:16:43.891Z,70
2017-01-09T11:17:43.330Z,70
2017-01-09T11:18:43.746Z,70
2017-01-09T11:19:43.981Z,70
2017-01-09T11:20:43.439Z,65
2017-01-09T11:21:42.779Z,60
2017-01-09T11:22:43.562Z,55
2017-01-09T11:23:43.058Z,50
2017-01-09T11:24:43.992Z,50
2017-01-09T11:25:43.416Z,50
2017-01-09T11:26:42.552Z,50
2017-01-09T11:27:43.858Z,50
2017-01-09T11:28:43.669Z,55
2017-01-09T11:29:43.224Z,60
2017-01-09T11:30:43.972Z,55
2017-01-09T11:31:44.482Z,55
2017-01-09T11:32:43.832Z,50
2017-01-09T11:33:43.793Z,45
2017-01-09T11:34:43.622Z,45
2017-01-09T11:35:42.490Z,40
2017-01-09T11:36:43.309Z,40
2017-01-09T11:37:43.710Z,40
2017-01-09T11:38:43.287Z,40
2017-01-09T11:39:43.319Z,40
2017-01-09T11:40:43.279Z,40
2017-01-09T11:41:42.557Z,40
2017-01-09T11:42:43.224Z,40
2017-01-09T11:43:43.846Z,40
2017-01-09T11:44:42.375Z,40
2017-01-09T11:45:42.534Z,40
2017-01-09T11:46:43.744Z,40
2017-01-09T11:47:44.424Z,35
2017-01-09T11:48:43.613Z,35
2017-01-09T11:49:42.488Z,35
2017-01-09T11:50:42.634Z,35
2017-01-09T11:51:43.523Z,35
2017-01-09T11:52:42.960Z,35
2017-01-09T11:53:43.320Z,40
2017-01-09T11:54:42.109Z,40
2017-01-09T11:55:42.180Z,45
2017-01-09T11:56:43.908Z,50
2017-01-09T11:57:42.683Z,50
2017-01-09T11:58:43.710Z,50
2017-01-09T11:59:43.267Z,50
2017-01-09T12:00:42.985Z,50
2017-01-09T12:01:41.719Z,45
2017-01-09T12:02:42.938Z,50
2017-01-09T12:03:42.499Z,60
2017-01-09T12:04:42.691Z,65
2017-01-09T12:05:44.051Z,90
2017-01-09T12:06:42.461Z,95
2017-01-09T12:07:42.550Z,105
2017-01-09T12:08:43.563Z,285
2017-01-09T12:09:43.430Z,135
2017-01-09T12:10:42.228Z,110
2017-01-09T12:11:42.245Z,85
2017-01-09T12:12:42.862Z,105
2017-01-09T12:13:43.506Z,120
2017-01-09T12:14:41.906Z,80
2017-01-09T12:15:42.789Z,75
2017-01-09T12:16:42.815Z,65
2017-01-09T12:17:41.852Z,65
2017-01-09T12:18:41.579Z,65
2017-01-09T12:19:42.631Z,65
2017-01-09T12:20:41.766Z,60
2017-01-09T12:21:42.549Z,55
2017-01-09T12:22:41.312Z,50
2017-01-09T12:23:42.582Z,50
2017-01-09T12:24:43.216Z,45
2017-01-09T12:25:43.215Z,45
2017-01-09T12:26:42.118Z,45
2017-01-09T12:27:42.169Z,45
2017-01-09T12:28:43.128Z,40
2017-01-09T12:29:42.480Z,40
2017-01-09T12:30:43.105Z,45
2017-01-09T12:31:42.016Z,45
2017-01-09T12:32:42.535Z,40
2017-01-09T12:33:41.124Z,40
2017-01-09T12:34:42.171Z,40
2017-01-09T12:35:42.304Z,40
2017-01-09T12:36:41.310Z,45
2017-01-09T12:37:42.593Z,50
2017-01-09T12:38:42.762Z,55
2017-01-09T12:39:40.822Z,55
2017-01-09T12:40:41.921Z,55
2017-01-09T12:41:42.799Z,50
2017-01-09T12:42:41.727Z,45
2017-01-09T12:43:41.380Z,45
2017-01-09T12:44:41.126Z,40
2017-01-09T12:45:40.972Z,40
2017-01-09T12:46:42.348Z,40
2017-01-09T12:47:42.878Z,35
2017-01-09T12:48:42.507Z,35
2017-01-09T12:49:42.967Z,35
2017-01-09T12:50:40.878Z,40
2017-01-09T12:51:40.229Z,40
2017-01-09T12:52:41.244Z,40
2017-01-09T12:53:41.314Z,40
2017-01-09T12:54:40.882Z,40
2017-01-09T12:55:41.433Z,40
2017-01-09T12:56:41.142Z,40
2017-01-09T12:57:41.461Z,40
2017-01-09T12:58:41.691Z,40
2017-01-09T12:59:41.584Z,40
2017-01-09T13:00:40.647Z,40
2017-01-09T13:01:40.606Z,35
2017-01-09T13:02:40.978Z,35
2017-01-09T13:03:40.477Z,35
2017-01-09T13:04:41.277Z,35
2017-01-09T13:05:40.306Z,35
2017-01-09T13:06:41.188Z,40
2017-01-09T13:07:41.546Z,40
2017-01-09T13:08:41.115Z,40
2017-01-09T13:09:40.955Z,40
2017-01-09T13:10:41.794Z,45
2017-01-09T13:11:42.116Z,45
2017-01-09T13:12:40.124Z,45
2017-01-09T13:13:41.703Z,45
2017-01-09T13:14:40.401Z,45
2017-01-09T13:15:40.466Z,45
2017-01-09T13:16:40.897Z,55
2017-01-09T13:17:40.887Z,65
2017-01-09T13:18:41.777Z,70
2017-01-09T13:19:41.441Z,65
2017-01-09T13:20:40.597Z,55
2017-01-09T13:21:40.149Z,50
2017-01-09T13:22:42.218Z,50
2017-01-09T13:23:40.868Z,45
2017-01-09T13:24:40.087Z,45
2017-01-09T13:25:41.428Z,40
2017-01-09T13:26:41.449Z,40
2017-01-09T13:27:40.416Z,35
2017-01-09T13:28:41.031Z,30
2017-01-09T13:29:40.906Z,25
2017-01-09T13:30:40.573Z,20
2017-01-09T13:31:40.689Z,20
2017-01-09T13:32:40.958Z,20
2017-01-09T13:33:40.253Z,20
2017-01-09T13:34:40.238Z,20
2017-01-09T13:35:41.072Z,20
2017-01-09T13:36:41.469Z,20
2017-01-09T13:37:41.832Z,20
2017-01-09T13:38:41.128Z,20
2017-01-09T13:39:40.267Z,20
2017-01-09T13:40:38.874Z,20
2017-01-09T13:41:41.711Z,20
2017-01-09T13:42:40.777Z,20
2017-01-09T13:43:41.667Z,20
2017-01-09T13:44:39.713Z,20
2017-01-09T13:45:40.866Z,20
2017-01-09T13:46:39.867Z,25
2017-01-09T13:47:40.159Z,25
2017-01-09T13:48:41.546Z,25
2017-01-09T13:49:41.200Z,30
2017-01-09T13:50:40.754Z,30
2017-01-09T13:51:40.135Z,30
2017-01-09T13:52:40.503Z,30
2017-01-09T13:53:40.771Z,30
2017-01-09T13:54:40.433Z,30
2017-01-09T13:55:40.069Z,25
2017-01-09T13:56:40.608Z,25
2017-01-09T13:57:40.473Z,25
2017-01-09T13:58:40.175Z,25
2017-01-09T13:59:39.908Z,25
2017-01-09T14:00:40.635Z,25
2017-01-09T14:01:39.249Z,25
2017-01-09T14:02:40.102Z,25
2017-01-09T14:03:39.828Z,20
2017-01-09T14:04:39.197Z,20
2017-01-09T14:05:39.772Z,20
2017-01-09T14:06:39.845Z,20
2017-01-09T14:07:40.104Z,20
2017-01-09T14:08:39.354Z,20
2017-01-09T14:09:41.028Z,20
2017-01-09T14:10:38.994Z,20
2017-01-09T14:11:39.286Z,20
2017-01-09T14:12:40.163Z,20
2017-01-09T14:13:39.342Z,25
2017-01-09T14:14:39.951Z,25
2017-01-09T14:15:40.258Z,25
2017-01-09T14:16:39.581Z,35
2017-01-09T14:17:39.916Z,30
2017-01-09T14:18:39.500Z,30
2017-01-09T14:19:39.080Z,30
2017-01-09T14:20:39.681Z,30
2017-01-09T14:21:39.175Z,30
2017-01-09T14:22:40.108Z,30
2017-01-09T14:23:39.436Z,35
2017-01-09T14:24:39.945Z,35
2017-01-09T14:25:38.537Z,30
2017-01-09T14:26:39.401Z,30
2017-01-09T14:27:40.515Z,30
2017-01-09T14:28:39.555Z,30
2017-01-09T14:29:40.607Z,30
2017-01-09T14:30:39.954Z,25